Forside
METAR-TAF:

METAR-TAF

Lufthavne :

Whiteside County Airport (Jos. H. Bittorf Field)

Sterling / Rock Falls, Illinois, USA

Breddekreds: 41-45N, længdekreds: 089-40W, højde: 197 m

Aktuelle vejr

Denne rapport blev lavet for 48 minutter siden, kl. 10:56 UTC
Vind 6 kt fra øst
Temperatur 1°C
Fugtighed 100%
Tryk 1006 hPa
Sigt: 8.0 km
Brudte skyer i en højde af 8000 ft
Overskyet i en højde af 9000 ft
dis

METAR: KSQI 191056Z AUTO 09006KT 5SM BR BKN080 OVC090 01/01 A2971 RMK AO2 SLP929 T00110006 FZRANO

Tid: 05:44 (11:44 UTC)


TAF: fraværende

Vejrobservationer og prognoser fra mere end 4000 lufthavne (METAR og TAF).

De gule og røde prikker repræsenterer de meteorologiske stationer.

Flyt musen over at se navnet på stationen.

Så klik over at se vejr observationer og prognoser.

At skifte det kort: Klik på de grønne knapper med et sort kors for at zoome ind; på den grønne knap med en bindestreg for at zoome ud; eller på de grønne pile for tilstødende kort.


METAR-TAF: